Haddam, Connecticut
Current Conditions -  °F | °C
As of 9:35 AM on Thursday 27 Nov 2014 (Local Time) from KSNC Reporting Station
Overcast Overcast  
Wind Chill: 29°   Ceiling: 3900
Heat Index: 34°   Visibility: 10mi
Dew Point: 30°   Wind: 6mph
Humidity: 87%   Direction: 330°NNW
Pressure: 29.96"   Gusts: NA
Location:  41.48°N, 72.51°W
Report Text: KSNC 271435Z AUTO 33005KT 10SM OVC039 01/M01 A2996 RMK AO2
Loading
Personal Weather Stations






























Interactive Weather Map New forecast layout! Learn more

10-Day Weather Forecast

Advertisements
Track Severe Weather on mobile